createdAt,value
2018-09-29T00:00:45.718Z,9.29
2018-09-29T00:01:45.736Z,9.32
2018-09-29T00:02:45.753Z,9.47
2018-09-29T00:03:45.973Z,9.34
2018-09-29T00:04:45.788Z,9.40
2018-09-29T00:05:46.139Z,9.47
2018-09-29T00:06:45.823Z,9.40
2018-09-29T00:07:45.839Z,9.48
2018-09-29T00:08:45.857Z,9.46
2018-09-29T00:09:45.877Z,9.47
2018-09-29T00:10:45.893Z,9.48
2018-09-29T00:11:45.910Z,9.44
2018-09-29T00:12:45.927Z,9.40
2018-09-29T00:13:45.947Z,9.39
2018-09-29T00:14:45.963Z,9.34
2018-09-29T00:15:45.982Z,9.47
2018-09-29T00:16:46.027Z,9.48
2018-09-29T00:17:46.016Z,9.44
2018-09-29T00:18:46.032Z,9.46
2018-09-29T00:19:46.049Z,9.43
2018-09-29T00:20:46.066Z,9.43
2018-09-29T00:21:46.083Z,9.28
2018-09-29T00:22:46.127Z,9.34
2018-09-29T00:23:46.118Z,9.32
2018-09-29T00:24:46.136Z,9.31
2018-09-29T00:25:46.355Z,9.39
2018-09-29T00:26:46.171Z,9.26
2018-09-29T00:27:46.187Z,9.28
2018-09-29T00:28:46.206Z,9.23
2018-09-29T00:29:46.223Z,9.31
2018-09-29T00:30:46.240Z,9.23
2018-09-29T00:31:46.257Z,9.32
2018-09-29T00:32:46.274Z,9.28
2018-09-29T00:33:46.292Z,9.25
2018-09-29T00:34:46.310Z,9.26
2018-09-29T00:35:46.327Z,9.31
2018-09-29T00:36:46.344Z,9.25
2018-09-29T00:37:46.362Z,9.22
2018-09-29T00:38:46.380Z,9.19
2018-09-29T00:39:46.396Z,9.19
2018-09-29T00:40:46.414Z,9.21
2018-09-29T00:41:46.431Z,9.13
2018-09-29T00:42:46.449Z,9.16
2018-09-29T00:43:46.493Z,9.13
2018-09-29T00:44:46.484Z,9.10
2018-09-29T00:45:46.500Z,9.19
2018-09-29T00:46:46.518Z,9.18
2018-09-29T00:47:46.535Z,9.14
2018-09-29T00:48:46.553Z,9.18
2018-09-29T00:49:46.598Z,9.23
2018-09-29T00:50:46.587Z,9.14
2018-09-29T00:51:46.604Z,9.10
2018-09-29T00:52:46.621Z,9.11
2018-09-29T00:53:46.639Z,9.10
2018-09-29T00:54:46.656Z,9.10
2018-09-29T00:55:46.673Z,9.10
2018-09-29T00:56:46.690Z,9.11
2018-09-29T00:57:46.707Z,9.00
2018-09-29T00:58:46.725Z,9.03
2018-09-29T00:59:46.742Z,9.10
2018-09-29T01:00:46.759Z,9.08
2018-09-29T01:01:46.780Z,9.10
2018-09-29T01:02:46.794Z,9.03
2018-09-29T01:03:46.811Z,9.02
2018-09-29T01:04:46.828Z,9.13
2018-09-29T01:05:46.846Z,8.99
2018-09-29T01:06:46.863Z,9.04
2018-09-29T01:07:46.880Z,9.06
2018-09-29T01:08:46.897Z,9.00
2018-09-29T01:09:46.914Z,8.91
2018-09-29T01:10:46.932Z,8.91
2018-09-29T01:11:46.948Z,8.99
2018-09-29T01:12:46.966Z,8.91
2018-09-29T01:13:47.012Z,8.92
2018-09-29T01:14:47.000Z,8.92
2018-09-29T01:15:47.317Z,8.73
2018-09-29T01:16:47.034Z,8.91
2018-09-29T01:17:47.052Z,8.84
2018-09-29T01:18:47.069Z,8.82
2018-09-29T01:19:47.086Z,8.76
2018-09-29T01:20:47.133Z,8.89
2018-09-29T01:21:47.120Z,8.94
2018-09-29T01:22:47.138Z,8.79
2018-09-29T01:23:47.154Z,8.84
2018-09-29T01:24:47.173Z,8.84
2018-09-29T01:25:47.189Z,8.69
2018-09-29T01:26:47.207Z,8.74
2018-09-29T01:27:47.223Z,8.78
2018-09-29T01:28:47.241Z,8.70
2018-09-29T01:29:47.257Z,8.81
2018-09-29T01:30:47.275Z,8.84
2018-09-29T01:31:47.293Z,8.79
2018-09-29T01:32:47.309Z,8.78
2018-09-29T01:33:47.326Z,8.66
2018-09-29T01:34:47.344Z,8.73
2018-09-29T01:35:47.365Z,8.76
2018-09-29T01:36:47.378Z,8.67
2018-09-29T01:37:47.436Z,8.70
2018-09-29T01:38:47.413Z,8.71
2018-09-29T01:39:47.456Z,8.73
2018-09-29T01:40:47.446Z,8.79
2018-09-29T01:41:47.464Z,8.74
2018-09-29T01:42:47.481Z,8.69
2018-09-29T01:43:47.497Z,8.69
2018-09-29T01:44:47.515Z,8.69
2018-09-29T01:45:47.531Z,8.61
2018-09-29T01:46:47.550Z,8.58
2018-09-29T01:47:47.567Z,8.71
2018-09-29T01:48:47.583Z,8.74
2018-09-29T01:49:47.601Z,8.69
2018-09-29T01:50:47.618Z,8.52
2018-09-29T01:51:47.634Z,8.52
2018-09-29T01:52:47.651Z,8.52
2018-09-29T01:53:47.669Z,8.45
2018-09-29T01:54:47.686Z,8.49
2018-09-29T01:55:47.702Z,8.51
2018-09-29T01:56:47.720Z,8.53
2018-09-29T01:57:47.737Z,8.52
2018-09-29T01:58:47.754Z,8.58
2018-09-29T01:59:47.771Z,8.55
2018-09-29T02:00:47.788Z,8.58
2018-09-29T02:01:47.806Z,8.46
2018-09-29T02:02:47.823Z,8.46
2018-09-29T02:03:47.839Z,8.36
2018-09-29T02:04:47.856Z,8.42
2018-09-29T02:05:47.873Z,8.41
2018-09-29T02:06:47.891Z,8.36
2018-09-29T02:07:47.908Z,8.37
2018-09-29T02:08:47.924Z,8.41
2018-09-29T02:09:47.942Z,8.42
2018-09-29T02:10:47.959Z,8.41
2018-09-29T02:11:48.004Z,8.48
2018-09-29T02:12:47.994Z,8.45
2018-09-29T02:13:48.010Z,8.51
2018-09-29T02:14:48.027Z,8.45
2018-09-29T02:15:48.043Z,8.48
2018-09-29T02:16:48.060Z,8.36
2018-09-29T02:17:48.077Z,8.36
2018-09-29T02:18:48.121Z,8.30
2018-09-29T02:19:48.111Z,8.38
2018-09-29T02:20:48.136Z,8.34
2018-09-29T02:21:48.145Z,8.36
2018-09-29T02:22:48.163Z,8.36
2018-09-29T02:23:48.178Z,8.26
2018-09-29T02:24:48.224Z,8.28
2018-09-29T02:25:48.213Z,8.27
2018-09-29T02:26:48.230Z,8.19
2018-09-29T02:27:48.247Z,8.34
2018-09-29T02:28:48.322Z,8.24
2018-09-29T02:29:48.281Z,8.27
2018-09-29T02:30:48.304Z,8.19
2018-09-29T02:31:48.316Z,8.19
2018-09-29T02:32:48.361Z,8.18
2018-09-29T02:33:48.349Z,8.23
2018-09-29T02:34:48.366Z,8.33
2018-09-29T02:35:48.384Z,8.19
2018-09-29T02:36:48.400Z,8.20
2018-09-29T02:37:48.417Z,8.24
2018-09-29T02:38:48.434Z,8.26
2018-09-29T02:39:48.450Z,8.13
2018-09-29T02:40:48.468Z,8.19
2018-09-29T02:41:48.485Z,8.15
2018-09-29T02:42:48.502Z,8.19
2018-09-29T02:43:48.546Z,8.01
2018-09-29T02:44:48.564Z,8.03
2018-09-29T02:45:48.552Z,8.08
2018-09-29T02:46:48.569Z,8.08
2018-09-29T02:47:48.587Z,8.03
2018-09-29T02:48:48.602Z,8.03
2018-09-29T02:49:48.620Z,8.01
2018-09-29T02:50:48.639Z,7.94
2018-09-29T02:51:48.653Z,7.95
2018-09-29T02:52:48.670Z,7.94
2018-09-29T02:53:48.687Z,7.98
2018-09-29T02:54:48.704Z,7.93
2018-09-29T02:55:48.720Z,7.93
2018-09-29T02:56:48.739Z,7.93
2018-09-29T02:57:48.757Z,7.95
2018-09-29T02:58:48.772Z,7.98
2018-09-29T02:59:48.788Z,7.93
2018-09-29T03:00:48.807Z,7.95
2018-09-29T03:01:48.822Z,7.98
2018-09-29T03:02:48.840Z,7.97
2018-09-29T03:03:48.857Z,7.88
2018-09-29T03:04:48.875Z,7.95
2018-09-29T03:05:48.890Z,7.88
2018-09-29T03:06:48.914Z,7.97
2018-09-29T03:07:48.950Z,7.88
2018-09-29T03:08:48.942Z,7.90
2018-09-29T03:09:48.957Z,7.91
2018-09-29T03:10:48.975Z,7.97
2018-09-29T03:11:48.992Z,7.90
2018-09-29T03:12:49.010Z,7.93
2018-09-29T03:13:49.053Z,7.94
2018-09-29T03:14:49.043Z,7.83
2018-09-29T03:15:49.059Z,7.83
2018-09-29T03:16:49.079Z,7.82
2018-09-29T03:17:49.093Z,7.67
2018-09-29T03:18:49.109Z,7.70
2018-09-29T03:19:49.127Z,7.69
2018-09-29T03:20:49.143Z,7.63
2018-09-29T03:21:49.160Z,7.63
2018-09-29T03:22:49.177Z,7.67
2018-09-29T03:23:49.193Z,7.69
2018-09-29T03:24:49.209Z,7.73
2018-09-29T03:25:49.226Z,7.60
2018-09-29T03:26:49.244Z,7.66
2018-09-29T03:27:49.260Z,7.63
2018-09-29T03:28:49.277Z,7.69
2018-09-29T03:29:49.293Z,7.66
2018-09-29T03:30:49.311Z,7.63
2018-09-29T03:31:49.334Z,7.63
2018-09-29T03:32:49.344Z,7.69
2018-09-29T03:33:49.361Z,7.63
2018-09-29T03:34:49.378Z,7.79
2018-09-29T03:35:49.394Z,7.79
2018-09-29T03:36:49.439Z,7.87
2018-09-29T03:37:49.428Z,7.83
2018-09-29T03:38:49.444Z,7.72
2018-09-29T03:39:49.460Z,7.63
2018-09-29T03:40:49.477Z,7.67
2018-09-29T03:41:49.494Z,7.60
2018-09-29T03:42:49.511Z,7.67
2018-09-29T03:43:49.527Z,7.69
2018-09-29T03:44:49.544Z,7.66
2018-09-29T03:45:49.561Z,7.56
2018-09-29T03:46:49.578Z,7.57
2018-09-29T03:47:49.629Z,7.60
2018-09-29T03:48:49.611Z,7.66
2018-09-29T03:49:49.628Z,7.58
2018-09-29T03:50:49.645Z,7.48
2018-09-29T03:51:49.663Z,7.51
2018-09-29T03:52:49.678Z,7.42
2018-09-29T03:53:49.695Z,7.40
2018-09-29T03:54:49.711Z,7.38
2018-09-29T03:55:49.727Z,7.39
2018-09-29T03:56:49.745Z,7.39
2018-09-29T03:57:49.763Z,7.29
2018-09-29T03:58:49.779Z,7.38
2018-09-29T03:59:49.794Z,7.33
2018-09-29T04:00:49.811Z,7.39
2018-09-29T04:01:49.830Z,7.45
2018-09-29T04:02:50.178Z,7.47
2018-09-29T04:03:49.861Z,7.47
2018-09-29T04:04:49.877Z,7.51
2018-09-29T04:05:49.894Z,7.39
2018-09-29T04:06:49.911Z,7.47
2018-09-29T04:07:49.930Z,7.48
2018-09-29T04:08:49.944Z,7.51
2018-09-29T04:09:49.961Z,7.56
2018-09-29T04:10:49.977Z,7.63
2018-09-29T04:11:49.992Z,7.51
2018-09-29T04:12:50.010Z,7.45
2018-09-29T04:13:50.052Z,7.47
2018-09-29T04:14:50.043Z,7.60
2018-09-29T04:15:50.059Z,7.58
2018-09-29T04:16:50.076Z,7.63
2018-09-29T04:17:50.121Z,7.60
2018-09-29T04:18:50.143Z,7.58
2018-09-29T04:19:50.125Z,7.56
2018-09-29T04:20:50.142Z,7.51
2018-09-29T04:21:50.493Z,7.51
2018-09-29T04:22:50.205Z,7.48
2018-09-29T04:23:50.192Z,7.40
2018-09-29T04:24:50.211Z,7.43
2018-09-29T04:25:50.254Z,7.35
2018-09-29T04:26:50.242Z,7.42
2018-09-29T04:27:50.257Z,7.43
2018-09-29T04:28:50.274Z,7.45
2018-09-29T04:29:50.291Z,7.33
2018-09-29T04:30:50.338Z,7.38
2018-09-29T04:31:50.324Z,7.29
2018-09-29T04:32:50.341Z,7.23
2018-09-29T04:33:50.357Z,7.20
2018-09-29T04:34:50.380Z,7.10
2018-09-29T04:35:50.389Z,7.07
2018-09-29T04:36:50.407Z,7.05
2018-09-29T04:37:50.422Z,7.07
2018-09-29T04:38:50.439Z,7.18
2018-09-29T04:39:50.455Z,7.21
2018-09-29T04:40:50.471Z,7.18
2018-09-29T04:41:50.488Z,7.03
2018-09-29T04:42:50.505Z,7.11
2018-09-29T04:43:50.520Z,7.02
2018-09-29T04:44:50.537Z,7.03
2018-09-29T04:45:50.562Z,6.97
2018-09-29T04:46:50.798Z,6.87
2018-09-29T04:47:50.586Z,6.87
2018-09-29T04:48:50.602Z,6.81
2018-09-29T04:49:50.620Z,6.81
2018-09-29T04:50:50.637Z,6.81
2018-09-29T04:51:50.653Z,6.75
2018-09-29T04:52:50.672Z,6.89
2018-09-29T04:53:50.684Z,6.89
2018-09-29T04:54:50.700Z,6.82
2018-09-29T04:55:50.741Z,6.99
2018-09-29T04:56:50.736Z,7.02
2018-09-29T04:57:50.750Z,7.06
2018-09-29T04:58:50.766Z,7.11
2018-09-29T04:59:50.781Z,7.13
2018-09-29T05:00:50.797Z,7.15
2018-09-29T05:01:50.814Z,7.03
2018-09-29T05:02:50.831Z,7.18
2018-09-29T05:03:50.848Z,7.20
2018-09-29T05:04:50.862Z,7.32
2018-09-29T05:05:50.879Z,7.32
2018-09-29T05:06:50.897Z,7.45
2018-09-29T05:07:50.937Z,7.33
2018-09-29T05:08:50.928Z,7.28
2018-09-29T05:09:50.944Z,7.21
2018-09-29T05:10:50.963Z,7.18
2018-09-29T05:11:50.977Z,7.23
2018-09-29T05:12:50.993Z,7.21
2018-09-29T05:13:51.022Z,7.14
2018-09-29T05:14:51.126Z,7.24
2018-09-29T05:15:51.070Z,7.29
2018-09-29T05:16:51.058Z,7.24
2018-09-29T05:17:51.075Z,7.33
2018-09-29T05:18:51.091Z,7.36
2018-09-29T05:19:51.107Z,7.39
2018-09-29T05:20:51.125Z,7.38
2018-09-29T05:21:51.140Z,7.42
2018-09-29T05:22:51.157Z,7.28
2018-09-29T05:23:51.172Z,7.32
2018-09-29T05:24:51.188Z,7.32
2018-09-29T05:25:51.205Z,7.33
2018-09-29T05:26:51.222Z,7.32
2018-09-29T05:27:51.266Z,7.21
2018-09-29T05:28:51.255Z,7.18
2018-09-29T05:29:51.271Z,7.23
2018-09-29T05:30:51.351Z,7.18
2018-09-29T05:31:51.304Z,7.05
2018-09-29T05:32:51.320Z,7.11
2018-09-29T05:33:51.337Z,7.05
2018-09-29T05:34:51.354Z,7.00
2018-09-29T05:35:51.369Z,7.03
2018-09-29T05:36:51.386Z,7.05
2018-09-29T05:37:51.402Z,7.06
2018-09-29T05:38:51.419Z,7.05
2018-09-29T05:39:51.434Z,7.15
2018-09-29T05:40:51.451Z,7.07
2018-09-29T05:41:51.469Z,7.11
2018-09-29T05:42:51.484Z,7.10
2018-09-29T05:43:51.499Z,7.10
2018-09-29T05:44:51.516Z,7.07
2018-09-29T05:45:51.562Z,7.10
2018-09-29T05:46:51.549Z,7.10
2018-09-29T05:47:51.565Z,7.05
2018-09-29T05:48:51.581Z,7.10
2018-09-29T05:49:51.597Z,7.10
2018-09-29T05:50:51.615Z,7.06
2018-09-29T05:51:51.629Z,7.03
2018-09-29T05:52:51.674Z,7.21
2018-09-29T05:53:51.689Z,7.18
2018-09-29T05:54:51.710Z,7.18
2018-09-29T05:55:51.695Z,7.20
2018-09-29T05:56:51.712Z,7.31
2018-09-29T05:57:51.728Z,7.28
2018-09-29T05:58:51.745Z,7.38
2018-09-29T05:59:51.761Z,7.42
2018-09-29T06:00:51.777Z,7.36
2018-09-29T06:01:51.794Z,7.38
2018-09-29T06:02:51.810Z,7.40
2018-09-29T06:03:51.826Z,7.38
2018-09-29T06:04:51.845Z,7.38
2018-09-29T06:05:51.937Z,7.43
2018-09-29T06:06:51.880Z,7.43
2018-09-29T06:07:51.891Z,7.45
2018-09-29T06:08:51.908Z,7.43
2018-09-29T06:09:51.926Z,7.51
2018-09-29T06:10:51.946Z,7.47
2018-09-29T06:11:51.957Z,7.48
2018-09-29T06:12:51.974Z,7.60
2018-09-29T06:13:51.991Z,7.50
2018-09-29T06:14:52.008Z,7.60
2018-09-29T06:15:52.023Z,7.67
2018-09-29T06:16:52.040Z,7.67
2018-09-29T06:17:52.057Z,7.66
2018-09-29T06:18:52.074Z,7.67
2018-09-29T06:19:52.090Z,7.70
2018-09-29T06:20:52.154Z,7.75
2018-09-29T06:21:52.123Z,7.76
2018-09-29T06:22:52.139Z,7.80
2018-09-29T06:23:52.159Z,7.80
2018-09-29T06:24:52.173Z,7.91
2018-09-29T06:25:52.189Z,7.94
2018-09-29T06:26:52.206Z,7.94
2018-09-29T06:27:52.243Z,7.91
2018-09-29T06:28:52.239Z,8.00
2018-09-29T06:29:52.256Z,8.00
2018-09-29T06:30:52.273Z,8.01
2018-09-29T06:31:52.289Z,8.10
2018-09-29T06:32:52.311Z,8.13
2018-09-29T06:33:52.323Z,8.13
2018-09-29T06:34:52.339Z,8.09
2018-09-29T06:35:52.356Z,8.08
2018-09-29T06:36:52.394Z,8.15
2018-09-29T06:37:52.390Z,8.19
2018-09-29T06:38:52.407Z,8.23
2018-09-29T06:39:52.423Z,8.20
2018-09-29T06:40:52.501Z,8.31
2018-09-29T06:41:52.457Z,8.24
2018-09-29T06:42:52.473Z,8.26
2018-09-29T06:43:52.490Z,8.26
2018-09-29T06:44:52.506Z,8.28
2018-09-29T06:45:52.524Z,8.36
2018-09-29T06:46:52.874Z,8.34
2018-09-29T06:47:52.681Z,8.36
2018-09-29T06:48:52.574Z,8.37
2018-09-29T06:49:52.591Z,8.38
2018-09-29T06:50:52.608Z,8.41
2018-09-29T06:51:52.624Z,8.48
2018-09-29T06:52:52.975Z,8.56
2018-09-29T06:53:52.662Z,8.49
2018-09-29T06:54:52.676Z,8.56
2018-09-29T06:55:52.692Z,8.60
2018-09-29T06:56:52.709Z,8.56
2018-09-29T06:57:52.726Z,8.58
2018-09-29T06:58:52.743Z,8.69
2018-09-29T06:59:52.787Z,8.73
2018-09-29T07:00:52.777Z,8.73
2018-09-29T07:01:52.794Z,8.73
2018-09-29T07:02:52.875Z,8.88
2018-09-29T07:03:52.831Z,8.87
2018-09-29T07:04:52.846Z,8.85
2018-09-29T07:05:52.862Z,8.79
2018-09-29T07:06:52.879Z,8.82
2018-09-29T07:07:52.896Z,8.91
2018-09-29T07:08:52.914Z,8.92
2018-09-29T07:09:52.930Z,8.97
2018-09-29T07:10:52.947Z,8.88
2018-09-29T07:11:52.964Z,9.02
2018-09-29T07:12:53.050Z,8.99
2018-09-29T07:13:52.999Z,9.03
2018-09-29T07:14:53.017Z,9.03
2018-09-29T07:15:53.034Z,9.00
2018-09-29T07:16:53.050Z,9.03
2018-09-29T07:17:53.076Z,9.10
2018-09-29T07:18:53.093Z,9.14
2018-09-29T07:19:53.116Z,9.14
2018-09-29T07:20:53.122Z,9.23
2018-09-29T07:21:53.230Z,9.31
2018-09-29T07:22:53.160Z,9.28
2018-09-29T07:23:53.175Z,9.34
2018-09-29T07:24:53.190Z,9.32
2018-09-29T07:25:53.209Z,9.39
2018-09-29T07:26:53.227Z,9.32
2018-09-29T07:27:53.241Z,9.36
2018-09-29T07:28:53.258Z,9.46
2018-09-29T07:29:53.277Z,9.47
2018-09-29T07:30:53.294Z,9.44
2018-09-29T07:31:53.311Z,9.44
2018-09-29T07:32:53.328Z,9.54
2018-09-29T07:33:53.347Z,9.64
2018-09-29T07:34:53.364Z,9.59
2018-09-29T07:35:53.381Z,9.59
2018-09-29T07:36:53.398Z,9.64
2018-09-29T07:37:53.417Z,9.55
2018-09-29T07:38:53.434Z,9.51
2018-09-29T07:39:53.450Z,9.47
2018-09-29T07:40:53.468Z,9.48
2018-09-29T07:41:53.491Z,9.47
2018-09-29T07:42:53.504Z,9.50
2018-09-29T07:43:53.521Z,9.56
2018-09-29T07:44:53.538Z,9.59
2018-09-29T07:45:53.558Z,9.73
2018-09-29T07:46:53.572Z,9.77
2018-09-29T07:47:53.590Z,9.83
2018-09-29T07:48:53.608Z,9.87
2018-09-29T07:49:53.654Z,9.80
2018-09-29T07:50:53.646Z,9.74
2018-09-29T07:51:53.690Z,9.86
2018-09-29T07:52:53.681Z,9.95
2018-09-29T07:53:53.697Z,10.01
2018-09-29T07:54:53.766Z,9.98
2018-09-29T07:55:53.755Z,10.13
2018-09-29T07:56:53.750Z,10.17
2018-09-29T07:57:53.768Z,10.19
2018-09-29T07:58:53.810Z,10.09
2018-09-29T07:59:53.802Z,10.23
2018-09-29T08:00:53.819Z,10.15
2018-09-29T08:01:53.988Z,10.23
2018-09-29T08:02:53.900Z,10.22
2018-09-29T08:03:53.873Z,10.28
2018-09-29T08:04:53.891Z,10.23
2018-09-29T08:05:53.915Z,10.16
2018-09-29T08:06:53.926Z,10.13
2018-09-29T08:07:53.943Z,10.09
2018-09-29T08:08:53.962Z,10.10
2018-09-29T08:09:53.980Z,10.13
2018-09-29T08:10:53.998Z,10.09
2018-09-29T08:11:54.015Z,10.15
2018-09-29T08:12:54.033Z,10.20
2018-09-29T08:13:54.050Z,10.30
2018-09-29T08:14:54.069Z,10.34
2018-09-29T08:15:54.086Z,10.33
2018-09-29T08:16:54.104Z,10.46
2018-09-29T08:17:54.122Z,10.49
2018-09-29T08:18:54.140Z,10.59
2018-09-29T08:19:54.157Z,10.57
2018-09-29T08:20:54.175Z,10.61
2018-09-29T08:21:54.197Z,10.54
2018-09-29T08:22:54.211Z,10.53
2018-09-29T08:23:54.228Z,10.59
2018-09-29T08:24:54.247Z,10.67
2018-09-29T08:25:54.264Z,10.72
2018-09-29T08:26:54.283Z,10.84
2018-09-29T08:27:54.301Z,10.84
2018-09-29T08:28:54.318Z,10.93
2018-09-29T08:29:54.337Z,10.87
2018-09-29T08:30:54.355Z,10.92
2018-09-29T08:31:54.375Z,10.93
2018-09-29T08:32:54.390Z,10.99
2018-09-29T08:33:54.409Z,10.96
2018-09-29T08:34:54.427Z,11.07
2018-09-29T08:35:54.473Z,11.10
2018-09-29T08:36:54.463Z,11.17
2018-09-29T08:37:54.559Z,11.25
2018-09-29T08:38:54.499Z,11.35
2018-09-29T08:39:54.517Z,11.29
2018-09-29T08:40:54.535Z,11.36
2018-09-29T08:41:54.583Z,11.40
2018-09-29T08:42:54.572Z,11.35
2018-09-29T08:43:54.590Z,11.32
2018-09-29T08:44:54.608Z,11.32
2018-09-29T08:45:54.630Z,11.32
2018-09-29T08:46:54.646Z,11.43
2018-09-29T08:47:54.664Z,11.44
2018-09-29T08:48:54.682Z,11.43
2018-09-29T08:49:54.700Z,11.36
2018-09-29T08:50:54.720Z,11.40
2018-09-29T08:51:54.736Z,11.44
2018-09-29T08:52:54.755Z,11.48
2018-09-29T08:53:54.775Z,11.62
2018-09-29T08:54:54.798Z,11.55
2018-09-29T08:55:54.810Z,11.66
2018-09-29T08:56:54.829Z,11.70
2018-09-29T08:57:54.848Z,11.77
2018-09-29T08:58:54.867Z,11.80
2018-09-29T08:59:54.885Z,11.84
2018-09-29T09:00:54.928Z,11.91
2018-09-29T09:01:54.923Z,12.03
2018-09-29T09:02:54.941Z,12.00
2018-09-29T09:03:54.976Z,12.21
2018-09-29T09:04:54.978Z,12.10
2018-09-29T09:05:54.997Z,12.17
2018-09-29T09:06:55.016Z,12.27
2018-09-29T09:07:55.034Z,12.36
2018-09-29T09:08:55.054Z,12.27
2018-09-29T09:09:55.072Z,12.31
2018-09-29T09:10:55.091Z,12.27
2018-09-29T09:11:55.136Z,12.31
2018-09-29T09:12:55.129Z,12.43
2018-09-29T09:13:55.147Z,12.35
2018-09-29T09:14:55.166Z,12.53
2018-09-29T09:15:55.186Z,12.55
2018-09-29T09:16:55.267Z,12.57
2018-09-29T09:17:55.222Z,12.64
2018-09-29T09:18:55.245Z,12.85
2018-09-29T09:19:55.261Z,12.91
2018-09-29T09:20:55.282Z,12.85
2018-09-29T09:21:55.299Z,12.93
2018-09-29T09:22:55.319Z,13.09
2018-09-29T09:23:55.343Z,13.15
2018-09-29T09:24:55.356Z,13.04
2018-09-29T09:25:55.375Z,12.82
2018-09-29T09:26:55.395Z,12.82
2018-09-29T09:27:55.413Z,12.93
2018-09-29T09:28:55.432Z,13.03
2018-09-29T09:29:55.494Z,13.01
2018-09-29T09:30:55.471Z,12.94
2018-09-29T09:31:55.490Z,13.08
2018-09-29T09:32:55.509Z,12.98
2018-09-29T09:33:55.528Z,13.03
2018-09-29T09:34:55.551Z,13.12
2018-09-29T09:35:55.567Z,13.12
2018-09-29T09:36:55.586Z,13.09
2018-09-29T09:37:55.606Z,13.11
2018-09-29T09:38:55.623Z,13.16
2018-09-29T09:39:55.669Z,13.15
2018-09-29T09:40:55.663Z,13.19
2018-09-29T09:41:55.683Z,13.16
2018-09-29T09:42:55.706Z,13.16
2018-09-29T09:43:55.720Z,13.22
2018-09-29T09:44:55.741Z,13.25
2018-09-29T09:45:55.760Z,13.41
2018-09-29T09:46:55.780Z,13.46
2018-09-29T09:47:55.799Z,13.46
2018-09-29T09:48:55.848Z,13.50
2018-09-29T09:49:55.868Z,13.59
2018-09-29T09:50:55.859Z,13.60
2018-09-29T09:51:55.877Z,13.47
2018-09-29T09:52:55.896Z,13.49
2018-09-29T09:53:55.916Z,13.44
2018-09-29T09:54:55.936Z,13.37
2018-09-29T09:55:55.989Z,13.23
2018-09-29T09:56:55.978Z,13.15
2018-09-29T09:57:55.998Z,13.09
2018-09-29T09:58:56.014Z,13.13
2018-09-29T09:59:56.034Z,13.27
2018-09-29T10:00:56.052Z,13.42
2018-09-29T10:01:56.077Z,13.57
2018-09-29T10:02:56.093Z,13.78
2018-09-29T10:03:56.112Z,13.81
2018-09-29T10:04:56.132Z,13.97
2018-09-29T10:05:56.152Z,14.17
2018-09-29T10:06:56.172Z,14.04
2018-09-29T10:07:56.217Z,14.14
2018-09-29T10:08:56.211Z,13.97
2018-09-29T10:09:56.234Z,13.87
2018-09-29T10:10:56.254Z,13.97
2018-09-29T10:11:56.271Z,13.97
2018-09-29T10:12:56.291Z,13.90
2018-09-29T10:13:56.312Z,13.78
2018-09-29T10:14:56.330Z,13.74
2018-09-29T10:15:56.349Z,13.75
2018-09-29T10:16:56.369Z,13.78
2018-09-29T10:17:56.389Z,13.72
2018-09-29T10:18:56.409Z,13.46
2018-09-29T10:19:56.428Z,13.39
2018-09-29T10:20:56.448Z,13.39
2018-09-29T10:21:56.468Z,13.31
2018-09-29T10:22:56.488Z,13.35
2018-09-29T10:23:56.508Z,13.53
2018-09-29T10:24:56.528Z,13.59
2018-09-29T10:25:56.555Z,13.78
2018-09-29T10:26:56.572Z,14.05
2018-09-29T10:27:56.617Z,14.17
2018-09-29T10:28:56.607Z,14.22
2018-09-29T10:29:56.628Z,14.35
2018-09-29T10:30:56.648Z,14.35
2018-09-29T10:31:56.668Z,14.40
2018-09-29T10:32:56.687Z,14.53
2018-09-29T10:33:56.708Z,14.50
2018-09-29T10:34:56.728Z,14.18
2018-09-29T10:35:56.747Z,14.14
2018-09-29T10:36:56.768Z,14.12
2018-09-29T10:37:56.787Z,14.14
2018-09-29T10:38:56.808Z,14.17
2018-09-29T10:39:56.827Z,14.11
2018-09-29T10:40:56.848Z,14.20
2018-09-29T10:41:56.868Z,14.26
2018-09-29T10:42:56.888Z,14.29
2018-09-29T10:43:56.908Z,14.37
2018-09-29T10:44:56.928Z,14.15
2018-09-29T10:45:56.951Z,13.87
2018-09-29T10:46:56.968Z,13.93
2018-09-29T10:47:56.987Z,13.95
2018-09-29T10:48:57.008Z,13.93
2018-09-29T10:49:57.028Z,14.04
2018-09-29T10:50:57.049Z,14.04
2018-09-29T10:51:57.068Z,14.12
2018-09-29T10:52:57.094Z,14.11
2018-09-29T10:53:57.110Z,14.26
2018-09-29T10:54:57.128Z,14.28
2018-09-29T10:55:57.148Z,14.32
2018-09-29T10:56:57.168Z,14.32
2018-09-29T10:57:57.188Z,14.33
2018-09-29T10:58:57.240Z,14.43
2018-09-29T10:59:57.230Z,14.63
2018-09-29T11:00:57.249Z,14.51
2018-09-29T11:01:57.570Z,14.22
2018-09-29T11:02:57.290Z,14.20
2018-09-29T11:03:57.309Z,14.26
2018-09-29T11:04:57.341Z,14.33
2018-09-29T11:05:57.350Z,14.48
2018-09-29T11:06:57.399Z,14.37
2018-09-29T11:07:57.393Z,14.53
2018-09-29T11:08:57.410Z,14.53
2018-09-29T11:09:57.431Z,14.53
2018-09-29T11:10:57.452Z,14.58
2018-09-29T11:11:57.471Z,14.55
2018-09-29T11:12:57.492Z,14.48
2018-09-29T11:13:57.513Z,14.51
2018-09-29T11:14:57.532Z,14.51
2018-09-29T11:15:57.551Z,14.50
2018-09-29T11:16:57.572Z,14.55
2018-09-29T11:17:57.593Z,14.66
2018-09-29T11:18:57.613Z,14.78
2018-09-29T11:19:57.633Z,14.78
2018-09-29T11:20:57.713Z,14.84
2018-09-29T11:21:57.674Z,14.65
2018-09-29T11:22:57.697Z,14.63
2018-09-29T11:23:57.715Z,14.55
2018-09-29T11:24:57.737Z,14.70
2018-09-29T11:25:57.757Z,14.78
2018-09-29T11:26:57.780Z,14.82
2018-09-29T11:27:57.799Z,14.78
2018-09-29T11:28:57.816Z,14.92
2018-09-29T11:29:57.837Z,14.69
2018-09-29T11:30:57.858Z,14.62
2018-09-29T11:31:57.877Z,14.68
2018-09-29T11:32:57.898Z,14.77
2018-09-29T11:33:57.919Z,14.70
2018-09-29T11:34:57.939Z,14.78
2018-09-29T11:35:58.360Z,14.77
2018-09-29T11:36:58.130Z,14.94
2018-09-29T11:37:58.000Z,14.89
2018-09-29T11:38:58.024Z,14.96
2018-09-29T11:39:58.040Z,14.78
2018-09-29T11:40:58.062Z,14.84
2018-09-29T11:41:58.081Z,14.81
2018-09-29T11:42:58.102Z,14.77
2018-09-29T11:43:58.324Z,14.69
2018-09-29T11:44:58.142Z,14.69
2018-09-29T11:45:58.163Z,14.72
2018-09-29T11:46:58.186Z,14.69
2018-09-29T11:47:58.203Z,14.85
2018-09-29T11:48:58.224Z,14.94
2018-09-29T11:49:58.249Z,14.94
2018-09-29T11:50:58.264Z,14.96
2018-09-29T11:51:58.284Z,14.72
2018-09-29T11:52:58.305Z,14.78
2018-09-29T11:53:58.326Z,14.77
2018-09-29T11:54:58.346Z,14.69
2018-09-29T11:55:58.366Z,14.82
2018-09-29T11:56:58.398Z,14.81
2018-09-29T11:57:58.407Z,14.85
2018-09-29T11:58:58.428Z,14.86
2018-09-29T11:59:58.447Z,14.94
2018-09-29T12:00:58.468Z,14.85
2018-09-29T12:01:58.536Z,14.88
2018-09-29T12:02:58.510Z,14.82
2018-09-29T12:03:58.532Z,14.85
2018-09-29T12:04:58.549Z,14.94
2018-09-29T12:05:58.619Z,14.78
2018-09-29T12:06:58.612Z,14.72
2018-09-29T12:07:58.729Z,14.70
2018-09-29T12:08:58.630Z,14.78
2018-09-29T12:09:58.652Z,14.78
2018-09-29T12:10:58.671Z,14.79
2018-09-29T12:11:58.691Z,14.89
2018-09-29T12:12:58.711Z,14.99
2018-09-29T12:13:58.936Z,14.77
2018-09-29T12:14:58.755Z,14.65
2018-09-29T12:15:58.773Z,14.51
2018-09-29T12:16:58.792Z,14.65
2018-09-29T12:17:58.818Z,14.62
2018-09-29T12:18:58.838Z,14.62
2018-09-29T12:19:58.853Z,14.66
2018-09-29T12:20:58.877Z,14.70
2018-09-29T12:21:58.895Z,14.84
2018-09-29T12:22:58.915Z,14.91
2018-09-29T12:23:58.935Z,14.92
2018-09-29T12:24:58.955Z,14.97
2018-09-29T12:25:58.976Z,15.07
2018-09-29T12:26:59.329Z,15.00
2018-09-29T12:27:59.015Z,15.09
2018-09-29T12:28:59.036Z,14.99
2018-09-29T12:29:59.096Z,15.02
2018-09-29T12:30:59.077Z,15.06
2018-09-29T12:31:59.097Z,15.11
2018-09-29T12:32:59.117Z,15.14
2018-09-29T12:33:59.138Z,15.10
2018-09-29T12:34:59.309Z,15.11
2018-09-29T12:35:59.178Z,15.10
2018-09-29T12:36:59.371Z,15.14
2018-09-29T12:37:59.220Z,15.18
2018-09-29T12:38:59.241Z,15.07
2018-09-29T12:39:59.260Z,15.11
2018-09-29T12:40:59.281Z,15.18
2018-09-29T12:41:59.301Z,15.15
2018-09-29T12:42:59.324Z,15.18
2018-09-29T12:43:59.341Z,15.17
2018-09-29T12:44:59.431Z,15.24
2018-09-29T12:45:59.382Z,15.18
2018-09-29T12:46:59.403Z,15.11
2018-09-29T12:47:59.424Z,15.15
2018-09-29T12:48:59.444Z,15.07
2018-09-29T12:49:59.465Z,15.00
2018-09-29T12:50:59.490Z,14.97
2018-09-29T12:51:59.573Z,15.15
2018-09-29T12:52:59.526Z,15.15
2018-09-29T12:53:59.546Z,15.19
2018-09-29T12:54:59.567Z,15.24
2018-09-29T12:55:59.588Z,15.07
2018-09-29T12:56:59.609Z,15.03
2018-09-29T12:57:59.628Z,14.96
2018-09-29T12:58:59.703Z,14.85
2018-09-29T12:59:59.669Z,14.82
2018-09-29T13:00:59.690Z,14.88
2018-09-29T13:01:59.713Z,14.84
2018-09-29T13:02:59.731Z,14.86
2018-09-29T13:03:59.751Z,14.92
2018-09-29T13:04:59.833Z,14.77
2018-09-29T13:05:59.792Z,14.84
2018-09-29T13:06:59.812Z,14.92
2018-09-29T13:07:59.835Z,15.04